Time;durP1;ratioP1;P1;durP2;ratioP2;P2;SDS_P1;SDS_P2;PMS_P1;PMS_P2;Temp;Humidity;BMP_temperature;BMP_pressure;BME280_temperature;BME280_humidity;BME280_pressure;Samples;Min_cycle;Max_cycle;Signal;HPM_P1;HPM_P2
2023/05/19 00:01:06;;;;;;;13.05;5.18;;;;;;;;;;5052122;28;20041;-66
2023/05/19 00:03:39;;;;;;;11.27;5.13;;;9.80;99.90;;;;;;5054729;28;20033;-68
2023/05/19 00:06:09;;;;;;;10.15;5.00;;;9.80;99.90;;;;;;5037742;28;20033;-68
2023/05/19 00:08:37;;;;;;;11.23;5.03;;;9.60;99.90;;;;;;5072589;28;20462;-68
2023/05/19 00:11:03;;;;;;;15.98;6.35;;;9.40;99.90;;;;;;5072414;28;20041;-68
2023/05/19 00:13:29;;;;;;;12.68;6.50;;;;;;;;;;5072005;28;20040;-68
2023/05/19 00:15:55;;;;;;;10.80;5.32;;;9.50;99.90;;;;;;5073413;28;20131;-68
2023/05/19 00:18:22;;;;;;;13.77;5.20;;;;;;;;;;5072054;28;20041;-68
2023/05/19 00:20:48;;;;;;;14.52;5.18;;;9.60;99.90;;;;;;5066517;28;20040;-68
2023/05/19 00:23:13;;;;;;;9.82;4.97;;;9.40;99.90;;;;;;5053297;28;20121;-67
2023/05/19 00:25:39;;;;;;;8.38;4.95;;;;;;;;;;5052002;28;20124;-68
2023/05/19 00:28:05;;;;;;;14.38;5.50;;;;;;;;;;5052014;28;20044;-68
2023/05/19 00:30:31;;;;;;;17.63;5.65;;;;;;;;;;5052100;28;20052;-68
2023/05/19 00:32:57;;;;;;;11.07;5.07;;;9.40;99.90;;;;;;5052796;28;20041;-68
2023/05/19 00:35:23;;;;;;;14.02;5.70;;;9.40;99.90;;;;;;5052976;28;20488;-68
2023/05/19 00:37:49;;;;;;;13.30;5.88;;;9.50;99.90;;;;;;5052451;28;20102;-68
2023/05/19 00:40:15;;;;;;;9.00;5.30;;;9.40;99.90;;;;;;5053811;28;20048;-68
2023/05/19 00:42:41;;;;;;;14.80;6.68;;;9.60;99.90;;;;;;5052832;28;20072;-67
2023/05/19 00:45:07;;;;;;;12.30;5.18;;;;;;;;;;5052459;28;20447;-67
2023/05/19 00:47:33;;;;;;;8.57;4.78;;;9.50;99.90;;;;;;5051792;28;20045;-67
2023/05/19 00:49:59;;;;;;;9.65;5.22;;;9.60;99.90;;;;;;5051359;28;20029;-67
2023/05/19 00:52:25;;;;;;;14.18;4.97;;;9.30;99.90;;;;;;5051987;28;20040;-67
2023/05/19 00:54:52;;;;;;;11.27;5.45;;;9.50;99.90;;;;;;5051145;28;20052;-67
2023/05/19 00:57:19;;;;;;;11.95;5.00;;;9.50;99.90;;;;;;5052550;28;20045;-67
2023/05/19 00:59:45;;;;;;;12.48;4.95;;;;;;;;;;5051581;28;20526;-67
2023/05/19 01:02:12;;;;;;;8.25;5.20;;;;;;;;;;5051494;28;20404;-66
2023/05/19 01:04:40;;;;;;;14.25;5.70;;;;;;;;;;5051341;28;20092;-66
2023/05/19 01:07:06;;;;;;;14.98;4.97;;;9.30;99.90;;;;;;5050879;28;20076;-67
2023/05/19 01:09:32;;;;;;;11.63;5.65;;;9.50;99.90;;;;;;5052406;28;20121;-66
2023/05/19 01:12:01;;;;;;;11.52;5.72;;;9.50;99.90;;;;;;5051093;28;20051;-67
2023/05/19 01:14:27;;;;;;;12.25;5.32;;;;;;;;;;5052132;28;20036;-67
2023/05/19 01:17:04;;;;;;;16.63;5.90;;;9.40;99.90;;;;;;5050744;28;20076;-67
2023/05/19 01:19:56;;;;;;;15.13;6.65;;;9.30;99.90;;;;;;5052481;28;20036;-67
2023/05/19 01:22:43;;;;;;;10.60;5.18;;;9.40;99.90;;;;;;5051745;28;20045;-67
2023/05/19 01:25:35;;;;;;;12.65;5.15;;;9.40;99.90;;;;;;5054882;28;20044;-68
2023/05/19 01:28:23;;;;;;;12.73;5.90;;;9.30;99.90;;;;;;5072005;28;20123;-66
2023/05/19 01:30:52;;;;;;;11.35;6.07;;;9.40;99.90;;;;;;5068982;28;20036;-68
2023/05/19 01:33:21;;;;;;;10.93;5.38;;;9.40;99.90;;;;;;5071810;28;20492;-67
2023/05/19 01:35:47;;;;;;;13.55;5.90;;;9.10;99.90;;;;;;5070535;28;20047;-67
2023/05/19 01:38:16;;;;;;;10.15;5.50;;;9.20;99.90;;;;;;5070510;28;20051;-67
2023/05/19 01:40:43;;;;;;;20.30;7.78;;;9.30;99.90;;;;;;5072667;28;20044;-67
2023/05/19 01:43:11;;;;;;;7.85;4.93;;;9.20;99.90;;;;;;5070511;28;20408;-67
2023/05/19 01:45:37;;;;;;;11.35;5.63;;;;;;;;;;5070649;28;20055;-67
2023/05/19 01:48:04;;;;;;;14.00;6.05;;;;;;;;;;5069552;28;20408;-67
2023/05/19 01:50:30;;;;;;;17.80;5.95;;;9.30;99.90;;;;;;5069369;28;20032;-67
2023/05/19 01:52:56;;;;;;;9.45;5.13;;;9.10;99.90;;;;;;5070274;28;20051;-67
2023/05/19 01:55:22;;;;;;;10.73;4.95;;;9.20;99.90;;;;;;5071870;28;20036;-66
2023/05/19 01:58:19;;;;;;;12.35;5.38;;;9.20;99.90;;;;;;5070365;28;20074;-67
2023/05/19 02:01:08;;;;;;;15.15;5.40;;;9.20;99.90;;;;;;5070312;28;20044;-67
2023/05/19 02:03:41;;;;;;;15.15;5.80;;;9.10;99.90;;;;;;5071486;28;20080;-67
2023/05/19 02:06:26;;;;;;;13.18;5.80;;;9.00;99.90;;;;;;5068575;28;20381;-67
2023/05/19 02:09:15;;;;;;;15.38;5.88;;;9.00;99.90;;;;;;5070223;28;20079;-67
2023/05/19 02:11:50;;;;;;;14.95;4.85;;;9.30;99.90;;;;;;5070017;28;20045;-67
2023/05/19 02:14:32;;;;;;;10.43;5.15;;;9.20;99.90;;;;;;5070073;28;20078;-67
2023/05/19 02:16:59;;;;;;;11.35;4.70;;;9.10;99.90;;;;;;5071343;28;20052;-67
2023/05/19 02:19:34;;;;;;;12.10;4.82;;;9.30;99.90;;;;;;5063353;28;20064;-67
2023/05/19 02:22:00;;;;;;;13.07;5.00;;;9.20;99.90;;;;;;5051221;28;20041;-67
2023/05/19 02:24:25;;;;;;;17.88;4.97;;;9.20;99.90;;;;;;5050335;28;20552;-67
2023/05/19 02:26:52;;;;;;;17.42;5.80;;;9.20;99.90;;;;;;5051169;28;20048;-67
2023/05/19 02:29:19;;;;;;;15.57;5.30;;;9.10;99.90;;;;;;5050112;28;20040;-67
2023/05/19 02:31:44;;;;;;;14.60;5.32;;;9.10;99.90;;;;;;5051096;28;20045;-66
2023/05/19 02:34:10;;;;;;;10.93;4.82;;;8.80;99.90;;;;;;5034591;28;20512;-67
2023/05/19 02:36:37;;;;;;;11.95;4.72;;;;;;;;;;5049866;28;20047;-66
2023/05/19 02:39:03;;;;;;;11.65;4.88;;;9.10;99.90;;;;;;5050140;28;20045;-67
2023/05/19 02:41:29;;;;;;;14.48;5.05;;;9.10;99.90;;;;;;5050912;28;20086;-67
2023/05/19 02:43:54;;;;;;;10.05;4.97;;;9.10;99.90;;;;;;5049952;28;20048;-67
2023/05/19 02:46:20;;;;;;;15.43;5.28;;;;;;;;;;5049948;28;20049;-67
2023/05/19 02:48:47;;;;;;;11.30;4.63;;;;;;;;;;5049777;28;20040;-67
2023/05/19 02:51:13;;;;;;;11.70;4.90;;;;;;;;;;5049325;28;20499;-67
2023/05/19 02:53:39;;;;;;;16.38;5.35;;;;;;;;;;5051933;28;20048;-67
2023/05/19 02:56:05;;;;;;;13.32;5.15;;;;;;;;;;5049702;28;20048;-67
2023/05/19 02:58:31;;;;;;;12.07;4.43;;;;;;;;;;5049722;28;20037;-67
2023/05/19 03:00:56;;;;;;;11.70;4.85;;;9.10;99.90;;;;;;5050834;28;20047;-67
2023/05/19 03:03:22;;;;;;;13.23;5.22;;;;;;;;;;5049332;28;20555;-67
2023/05/19 03:05:48;;;;;;;12.98;4.35;;;9.10;99.90;;;;;;5049568;28;20119;-66
2023/05/19 03:08:14;;;;;;;13.95;4.53;;;9.10;99.90;;;;;;5049569;28;20080;-67
2023/05/19 03:10:40;;;;;;;10.30;4.88;;;;;;;;;;5051470;28;20037;-67
2023/05/19 03:13:06;;;;;;;10.88;4.80;;;;;;;;;;5050362;28;20033;-67
2023/05/19 03:15:32;;;;;;;12.10;4.38;;;9.00;99.90;;;;;;5054432;28;20037;-67
2023/05/19 03:17:57;;;;;;;11.82;4.80;;;8.90;99.90;;;;;;5053218;28;20663;-66
2023/05/19 03:20:23;;;;;;;13.68;5.03;;;9.10;99.90;;;;;;5054684;28;20052;-67
2023/05/19 03:22:49;;;;;;;18.00;4.88;;;9.10;99.90;;;;;;5052928;28;20033;-68
2023/05/19 03:25:15;;;;;;;17.27;5.55;;;9.10;99.90;;;;;;5053398;28;20044;-67
2023/05/19 03:27:41;;;;;;;13.35;4.78;;;;;;;;;;5053989;28;20106;-67
2023/05/19 03:30:07;;;;;;;20.67;5.53;;;9.00;99.90;;;;;;5053028;28;20041;-67
2023/05/19 03:32:36;;;;;;;16.45;4.95;;;9.00;99.90;;;;;;5065683;28;20044;-66
2023/05/19 03:35:03;;;;;;;13.35;5.63;;;9.00;99.90;;;;;;5073935;28;20047;-67
2023/05/19 03:37:29;;;;;;;11.57;4.80;;;;;;;;;;5072974;28;20089;-67
2023/05/19 03:39:56;;;;;;;11.32;4.40;;;;;;;;;;5074179;28;20040;-67
2023/05/19 03:42:21;;;;;;;14.73;4.93;;;8.90;99.90;;;;;;5072886;28;20048;-67
2023/05/19 03:44:47;;;;;;;14.32;5.60;;;;;;;;;;5071153;28;20120;-67
2023/05/19 03:47:13;;;;;;;17.48;5.70;;;;;;;;;;5072400;28;20412;-67
2023/05/19 03:49:39;;;;;;;12.65;4.72;;;9.00;99.90;;;;;;5073971;28;20046;-67
2023/05/19 03:52:05;;;;;;;12.70;4.47;;;8.90;99.90;;;;;;5072364;28;20033;-67
2023/05/19 03:54:31;;;;;;;12.15;6.03;;;;;;;;;;5072894;28;20036;-67
2023/05/19 03:56:57;;;;;;;20.48;5.47;;;;;;;;;;5072458;28;20090;-67
2023/05/19 03:59:23;;;;;;;12.68;5.20;;;9.10;99.90;;;;;;5073807;28;20044;-67
2023/05/19 04:01:49;;;;;;;15.38;5.60;;;9.00;99.90;;;;;;5070964;28;20088;-67
2023/05/19 04:04:15;;;;;;;17.70;5.85;;;9.20;99.90;;;;;;5055516;28;20058;-67
2023/05/19 04:06:41;;;;;;;13.93;5.28;;;;;;;;;;5071823;28;20548;-67
2023/05/19 04:09:13;;;;;;;13.45;5.43;;;9.00;99.90;;;;;;5073850;28;20090;-67
2023/05/19 04:11:39;;;;;;;13.13;4.72;;;9.10;99.90;;;;;;5072191;28;20039;-67
2023/05/19 04:14:06;;;;;;;15.18;4.68;;;9.00;99.90;;;;;;5072325;28;20047;-67
2023/05/19 04:16:32;;;;;;;13.43;5.28;;;9.20;99.90;;;;;;5072132;28;20083;-67
2023/05/19 04:18:57;;;;;;;21.05;6.03;;;9.30;99.90;;;;;;5072115;28;20068;-67
2023/05/19 04:21:23;;;;;;;11.30;4.82;;;;;;;;;;5070406;28;20044;-67
2023/05/19 04:23:49;;;;;;;14.65;4.65;;;;;;;;;;5072034;28;20040;-67
2023/05/19 04:26:16;;;;;;;11.80;5.10;;;;;;;;;;5071796;28;20044;-67
2023/05/19 04:28:43;;;;;;;16.13;5.93;;;9.30;99.90;;;;;;5071896;28;20127;-67
2023/05/19 04:31:13;;;;;;;10.73;4.55;;;9.50;99.90;;;;;;5071909;28;20396;-66
2023/05/19 04:33:39;;;;;;;14.57;5.88;;;9.60;99.90;;;;;;5071827;28;20036;-67
2023/05/19 04:36:07;;;;;;;9.52;5.57;;;9.60;99.90;;;;;;5065654;28;20400;-67
2023/05/19 04:38:38;;;;;;;19.35;5.70;;;9.60;99.90;;;;;;5051943;28;20489;-67
2023/05/19 04:41:05;;;;;;;12.02;5.50;;;;;;;;;;5051827;28;20136;-67
2023/05/19 04:43:30;;;;;;;15.07;5.10;;;9.70;99.90;;;;;;5053658;28;20419;-67
2023/05/19 04:45:57;;;;;;;11.40;4.78;;;;;;;;;;5052132;28;20055;-67
2023/05/19 04:48:22;;;;;;;11.10;5.05;;;9.50;99.90;;;;;;5052749;28;20416;-67
2023/05/19 04:50:50;;;;;;;15.57;5.13;;;;;;;;;;5051427;28;20048;-67
2023/05/19 04:53:16;;;;;;;11.20;5.70;;;9.70;99.90;;;;;;5051714;28;20049;-67
2023/05/19 04:55:42;;;;;;;18.17;5.00;;;;;;;;;;5051372;28;20056;-67
2023/05/19 04:58:08;;;;;;;12.20;4.53;;;9.90;99.90;;;;;;5051317;28;20045;-67
2023/05/19 05:00:34;;;;;;;12.63;5.00;;;9.90;99.90;;;;;;5063616;28;20373;-67
2023/05/19 05:03:03;;;;;;;17.77;5.88;;;10.00;99.90;;;;;;5072320;28;20549;-67
2023/05/19 05:05:29;;;;;;;13.15;6.05;;;;;;;;;;5071353;28;20454;-68
2023/05/19 05:07:56;;;;;;;18.90;6.10;;;;;;;;;;5070728;28;20093;-67
2023/05/19 05:10:22;;;;;;;15.05;6.22;;;10.10;99.90;;;;;;5070156;28;20040;-67
2023/05/19 05:12:48;;;;;;;16.80;6.05;;;;;;;;;;5071873;28;20373;-67
2023/05/19 05:15:14;;;;;;;13.82;6.13;;;;;;;;;;5071976;28;20492;-68
2023/05/19 05:17:40;;;;;;;17.13;6.00;;;;;;;;;;5070353;28;20044;-67
2023/05/19 05:20:06;;;;;;;16.88;5.95;;;10.20;99.90;;;;;;5071202;28;20044;-67
2023/05/19 05:22:32;;;;;;;14.80;4.75;;;10.30;99.90;;;;;;5070561;28;20044;-67
2023/05/19 05:25:00;;;;;;;15.90;5.22;;;10.70;99.90;;;;;;5067650;28;20133;-67
2023/05/19 05:27:26;;;;;;;17.58;5.72;;;;;;;;;;5060766;28;20041;-67
2023/05/19 05:29:52;;;;;;;14.45;5.22;;;10.80;99.90;;;;;;5059393;28;20045;-67
2023/05/19 05:32:17;;;;;;;9.18;5.60;;;10.80;99.90;;;;;;5060053;28;20507;-67
2023/05/19 05:34:43;;;;;;;13.27;4.38;;;;;;;;;;5059400;28;20068;-66
2023/05/19 05:37:09;;;;;;;15.02;6.32;;;11.00;99.90;;;;;;5059534;28;20479;-67
2023/05/19 05:39:35;;;;;;;18.17;6.95;;;;;;;;;;5061031;28;20120;-67
2023/05/19 05:42:01;;;;;;;13.05;6.30;;;;;;;;;;5061576;28;20067;-67
2023/05/19 05:44:27;;;;;;;14.75;5.57;;;;;;;;;;5058321;28;20052;-66
2023/05/19 05:46:53;;;;;;;13.20;4.82;;;11.20;99.90;;;;;;5057959;28;20099;-67
2023/05/19 05:49:19;;;;;;;17.77;6.65;;;;;;;;;;5035571;28;20029;-67
2023/05/19 05:51:45;;;;;;;10.25;4.75;;;11.40;99.90;;;;;;5063072;28;20450;-67
2023/05/19 05:54:12;;;;;;;12.93;5.53;;;11.50;99.90;;;;;;5046560;28;20033;-68
2023/05/19 05:56:38;;;;;;;12.68;5.40;;;;;;;;;;5064986;28;20048;-66
2023/05/19 05:59:04;;;;;;;12.18;4.50;;;;;;;;;;5071561;28;20048;-67
2023/05/19 06:01:30;;;;;;;16.90;5.78;;;;;;;;;;5058823;28;20037;-67
2023/05/19 06:03:56;;;;;;;12.15;5.03;;;;;;;;;;5058852;28;20040;-67
2023/05/19 06:06:22;;;;;;;15.02;5.97;;;;;;;;;;5049524;28;20129;-66
2023/05/19 06:08:48;;;;;;;10.43;5.57;;;;;;;;;;5053385;28;20563;-67
2023/05/19 06:11:14;;;;;;;12.57;5.18;;;;;;;;;;5071442;28;20041;-66
2023/05/19 06:13:40;;;;;;;14.20;5.47;;;12.00;99.90;;;;;;5071226;28;20506;-67
2023/05/19 06:16:06;;;;;;;14.95;6.35;;;12.20;99.90;;;;;;5070449;28;20037;-67
2023/05/19 06:18:32;;;;;;;12.10;5.75;;;;;;;;;;5054093;28;20041;-65
2023/05/19 06:20:57;;;;;;;10.77;5.05;;;12.30;99.90;;;;;;5049931;28;20051;-66
2023/05/19 06:23:25;;;;;;;13.20;4.93;;;;;;;;;;5055748;28;20045;-67
2023/05/19 06:25:51;;;;;;;12.88;5.85;;;;;;;;;;5040174;28;20806;-67
2023/05/19 06:28:17;;;;;;;12.73;4.47;;;;;;;;;;5060753;28;20431;-67
2023/05/19 06:30:44;;;;;;;10.90;4.20;;;;;;;;;;5067700;28;20043;-67
2023/05/19 06:33:10;;;;;;;13.15;3.95;;;;;;;;;;5058960;28;20075;-67
2023/05/19 06:35:36;;;;;;;12.27;4.40;;;;;;;;;;5050197;28;20064;-67
2023/05/19 06:38:01;;;;;;;10.77;4.40;;;;;;;;;;5049869;28;20123;-67
2023/05/19 06:40:27;;;;;;;10.48;4.13;;;;;;;;;;5047191;28;20041;-67
2023/05/19 06:42:53;;;;;;;10.43;5.03;;;;;;;;;;5047205;28;20132;-66
2023/05/19 06:45:21;;;;;;;14.65;4.50;;;;;;;;;;5045713;28;20037;-67
2023/05/19 06:47:47;;;;;;;11.52;5.00;;;13.20;99.90;;;;;;5047094;28;20456;-67
2023/05/19 06:50:13;;;;;;;13.35;5.75;;;13.60;99.90;;;;;;5032121;28;20041;-67
2023/05/19 06:52:38;;;;;;;14.75;4.82;;;13.50;99.90;;;;;;5054033;28;20514;-65
2023/05/19 06:55:04;;;;;;;12.50;4.60;;;13.60;99.90;;;;;;5059437;28;20037;-66
2023/05/19 06:57:30;;;;;;;12.48;4.70;;;13.60;99.90;;;;;;5051175;28;20036;-66
2023/05/19 06:59:56;;;;;;;11.00;4.18;;;13.80;99.90;;;;;;5051470;28;20033;-66
2023/05/19 07:02:23;;;;;;;7.75;3.63;;;14.00;99.90;;;;;;5057159;28;20467;-66
2023/05/19 07:04:51;;;;;;;12.35;4.07;;;14.10;99.90;;;;;;5051157;28;20443;-66
2023/05/19 07:07:17;;;;;;;12.25;4.18;;;14.10;99.90;;;;;;5051398;28;20574;-68
2023/05/19 07:09:42;;;;;;;12.65;4.88;;;14.10;99.90;;;;;;5051113;28;20033;-66
2023/05/19 07:12:08;;;;;;;15.65;4.13;;;14.20;99.90;;;;;;5050575;28;20087;-66
2023/05/19 07:14:35;;;;;;;16.40;4.57;;;14.40;99.90;;;;;;5059039;28;20033;-66
2023/05/19 07:17:00;;;;;;;10.27;4.20;;;14.60;99.90;;;;;;5056876;28;20068;-67
2023/05/19 07:19:26;;;;;;;8.85;3.85;;;14.60;99.90;;;;;;5057581;28;20071;-67
2023/05/19 07:21:53;;;;;;;11.20;4.10;;;14.40;99.90;;;;;;5059126;28;20505;-66
2023/05/19 07:24:20;;;;;;;9.50;3.70;;;14.40;99.90;;;;;;5060177;28;20048;-67
2023/05/19 07:26:45;;;;;;;14.02;5.05;;;14.50;99.90;;;;;;5041878;28;20033;-67
2023/05/19 07:29:11;;;;;;;14.00;4.30;;;15.30;99.90;;;;;;5061820;28;20090;-67
2023/05/19 07:31:36;;;;;;;14.88;4.18;;;14.70;99.90;;;;;;5063382;28;20480;-67
2023/05/19 07:34:02;;;;;;;11.18;4.22;;;14.80;99.90;;;;;;5067276;28;20044;-66
2023/05/19 07:36:28;;;;;;;9.65;3.20;;;14.80;99.90;;;;;;5073965;28;20044;-66
2023/05/19 07:38:53;;;;;;;11.93;3.95;;;15.00;99.90;;;;;;5072689;28;20044;-66
2023/05/19 07:41:20;;;;;;;7.18;3.25;;;14.70;99.90;;;;;;5072024;28;20033;-66
2023/05/19 07:43:46;;;;;;;15.95;4.85;;;14.90;99.90;;;;;;5071444;28;20039;-67
2023/05/19 07:46:11;;;;;;;11.73;3.50;;;15.40;99.90;;;;;;5072112;28;20049;-66
2023/05/19 07:48:37;;;;;;;10.30;3.33;;;15.40;99.90;;;;;;5071575;28;20049;-67
2023/05/19 07:51:03;;;;;;;7.45;3.60;;;15.10;99.90;;;;;;5072792;28;20048;-67
2023/05/19 07:53:28;;;;;;;6.60;2.72;;;15.20;99.90;;;;;;5054783;28;20036;-66
2023/05/19 07:55:55;;;;;;;8.52;3.10;;;15.20;99.90;;;;;;5071967;28;20129;-67
2023/05/19 07:58:20;;;;;;;9.57;3.30;;;15.20;99.90;;;;;;5070881;28;20045;-67
2023/05/19 08:00:46;;;;;;;12.20;2.95;;;15.40;99.90;;;;;;5072963;28;20039;-66
2023/05/19 08:03:12;;;;;;;7.97;2.92;;;16.10;99.90;;;;;;5073260;28;20496;-66
2023/05/19 08:05:38;;;;;;;7.75;3.40;;;15.50;99.90;;;;;;5071997;28;20040;-66
2023/05/19 08:08:03;;;;;;;12.13;4.30;;;15.90;99.90;;;;;;5072379;28;20512;-67
2023/05/19 08:10:29;;;;;;;10.63;3.20;;;15.70;99.90;;;;;;5072211;28;20453;-67
2023/05/19 08:12:55;;;;;;;13.15;3.05;;;16.20;99.90;;;;;;5072003;28;20201;-67
2023/05/19 08:15:20;;;;;;;11.02;3.58;;;16.10;99.90;;;;;;5072524;28;20041;-67
2023/05/19 08:17:46;;;;;;;14.88;3.40;;;15.90;99.90;;;;;;5071063;28;20127;-66
2023/05/19 08:20:12;;;;;;;9.73;2.95;;;16.00;99.90;;;;;;5073332;28;20040;-67
2023/05/19 08:22:38;;;;;;;7.20;2.90;;;16.20;99.90;;;;;;5072251;28;20089;-67
2023/05/19 08:25:05;;;;;;;12.05;3.40;;;16.30;99.90;;;;;;5072260;28;20052;-67
2023/05/19 08:27:31;;;;;;;9.95;3.60;;;16.40;99.90;;;;;;5072031;28;20041;-67
2023/05/19 08:29:57;;;;;;;6.55;2.58;;;16.90;99.90;;;;;;5073078;28;20044;-67
2023/05/19 08:32:23;;;;;;;10.48;2.88;;;16.70;99.90;;;;;;5071616;28;20376;-66
2023/05/19 08:34:48;;;;;;;9.23;2.90;;;16.50;99.90;;;;;;5070250;28;20039;-67
2023/05/19 08:37:14;;;;;;;10.00;3.00;;;16.70;99.90;;;;;;5072917;28;20041;-67
2023/05/19 08:39:40;;;;;;;8.45;3.13;;;16.30;99.90;;;;;;5072934;28;20090;-67
2023/05/19 08:42:08;;;;;;;8.43;2.85;;;16.40;99.90;;;;;;5071264;28;20124;-67
2023/05/19 08:44:35;;;;;;;8.00;2.72;;;16.60;99.90;;;;;;5072707;28;20036;-67
2023/05/19 08:47:11;;;;;;;8.18;2.65;;;16.90;99.90;;;;;;5071155;28;20129;-67
2023/05/19 08:49:44;;;;;;;9.00;3.13;;;16.60;99.90;;;;;;5071470;28;20032;-67
2023/05/19 08:52:38;;;;;;;10.48;3.75;;;16.80;99.90;;;;;;5070846;28;20036;-67
2023/05/19 08:55:26;;;;;;;7.38;3.05;;;16.70;99.90;;;;;;5071072;28;20234;-67
2023/05/19 08:57:52;;;;;;;9.98;3.00;;;16.90;99.90;;;;;;5072614;28;20412;-66
2023/05/19 09:00:19;;;;;;;6.97;2.42;;;16.70;99.90;;;;;;5072524;28;20036;-67
2023/05/19 09:02:47;;;;;;;7.97;3.33;;;16.70;99.90;;;;;;5070811;28;20055;-67
2023/05/19 09:05:15;;;;;;;9.85;4.25;;;16.50;99.90;;;;;;5071014;28;20127;-67
2023/05/19 09:07:43;;;;;;;9.45;3.30;;;16.90;99.90;;;;;;5072013;28;20048;-67
2023/05/19 09:10:13;;;;;;;8.77;3.25;;;16.80;99.90;;;;;;5068776;28;20461;-67
2023/05/19 09:12:44;;;;;;;11.15;3.10;;;16.70;99.90;;;;;;5070084;28;20115;-67
2023/05/19 09:15:11;;;;;;;9.32;2.70;;;16.80;99.90;;;;;;5070869;28;20043;-67
2023/05/19 09:17:38;;;;;;;7.65;3.13;;;17.30;99.90;;;;;;5072179;28;20389;-67
2023/05/19 09:20:09;;;;;;;9.70;2.80;;;17.70;99.90;;;;;;5070911;28;20060;-67
2023/05/19 09:22:46;;;;;;;8.82;4.32;;;17.20;99.90;;;;;;5071746;28;20492;-67
2023/05/19 09:25:18;;;;;;;11.35;3.65;;;17.30;99.90;;;;;;5070697;28;20054;-66
2023/05/19 09:27:46;;;;;;;7.80;3.28;;;17.10;99.90;;;;;;5070278;28;20044;-67
2023/05/19 09:30:12;;;;;;;8.82;2.80;;;17.20;99.90;;;;;;5070669;28;20044;-67
2023/05/19 09:32:38;;;;;;;7.40;3.58;;;17.50;99.90;;;;;;5070741;28;20492;-66
2023/05/19 09:35:04;;;;;;;5.78;2.90;;;17.30;99.90;;;;;;5070380;28;20062;-66
2023/05/19 09:37:30;;;;;;;8.82;3.13;;;17.30;99.90;;;;;;5070551;28;20040;-66
2023/05/19 09:39:56;;;;;;;7.22;2.90;;;17.30;99.90;;;;;;5070661;28;20102;-67
2023/05/19 09:42:26;;;;;;;11.63;3.35;;;17.20;99.90;;;;;;5071872;28;20040;-66
2023/05/19 09:45:02;;;;;;;8.20;3.40;;;17.30;99.90;;;;;;5068809;28;20424;-66
2023/05/19 09:47:38;;;;;;;7.78;3.05;;;17.30;99.90;;;;;;5069493;28;20051;-67
2023/05/19 09:50:06;;;;;;;7.30;3.30;;;17.40;99.90;;;;;;5071470;28;20040;-67
2023/05/19 09:52:37;;;;;;;8.07;3.50;;;17.50;99.90;;;;;;5070156;28;20044;-67
2023/05/19 09:55:05;;;;;;;5.50;2.53;;;17.80;99.90;;;;;;5070495;28;20040;-67
2023/05/19 09:57:35;;;;;;;8.10;3.33;;;17.90;99.90;;;;;;5070154;28;20055;-67
2023/05/19 10:00:18;;;;;;;10.60;3.58;;;17.80;99.90;;;;;;5071468;28;20056;-67
2023/05/19 10:02:46;;;;;;;8.80;3.63;;;17.90;99.90;;;;;;5067757;28;20500;-66
2023/05/19 10:05:18;;;;;;;9.30;3.63;;;17.80;99.90;;;;;;5070138;28;20821;-67
2023/05/19 10:07:51;;;;;;;10.10;3.23;;;17.90;99.90;;;;;;5071188;28;20045;-67
2023/05/19 10:10:20;;;;;;;15.32;3.17;;;18.00;99.90;;;;;;5070071;28;20715;-67
2023/05/19 10:12:47;;;;;;;5.07;2.33;;;18.20;99.90;;;;;;5069784;28;20036;-67
2023/05/19 10:15:15;;;;;;;9.52;3.10;;;18.20;99.90;;;;;;5053383;28;20045;-67
2023/05/19 10:17:43;;;;;;;9.35;2.88;;;18.10;99.90;;;;;;5071149;28;20105;-67
2023/05/19 10:20:11;;;;;;;7.53;3.22;;;18.20;99.90;;;;;;5068373;28;20060;-67
2023/05/19 10:22:38;;;;;;;9.75;3.10;;;18.00;99.90;;;;;;5053619;28;20178;-67
2023/05/19 10:25:05;;;;;;;7.88;3.30;;;17.90;99.90;;;;;;5073969;28;20060;-67
2023/05/19 10:27:35;;;;;;;7.13;3.03;;;17.80;99.90;;;;;;5073683;28;20044;-66
2023/05/19 10:30:08;;;;;;;9.25;3.88;;;17.60;99.90;;;;;;5075422;28;20032;-66
2023/05/19 10:32:36;;;;;;;8.35;3.25;;;17.40;99.80;;;;;;5073813;28;20499;-67
2023/05/19 10:35:20;;;;;;;9.05;3.60;;;17.20;99.90;;;;;;5075233;28;20412;-67
2023/05/19 10:38:10;;;;;;;7.90;2.88;;;18.00;99.90;;;;;;5055466;28;20049;-66
2023/05/19 10:40:42;;;;;;;8.68;3.15;;;18.00;99.90;;;;;;5055634;28;20116;-67
2023/05/19 10:43:35;;;;;;;7.75;2.83;;;18.20;99.90;;;;;;5054775;28;20496;-66
2023/05/19 10:46:03;;;;;;;6.68;2.70;;;18.50;99.90;;;;;;5053697;28;20537;-66
2023/05/19 10:48:33;;;;;;;7.57;3.17;;;18.30;99.90;;;;;;5053624;28;20051;-67
2023/05/19 10:50:59;;;;;;;8.00;3.55;;;;;;;;;;5054630;28;20044;-67
2023/05/19 10:53:33;;;;;;;8.55;3.42;;;18.60;99.10;;;;;;5054741;28;20045;-67
2023/05/19 10:56:05;;;;;;;5.63;2.70;;;18.60;99.90;;;;;;5054798;28;20064;-67
2023/05/19 10:58:57;;;;;;;7.32;3.08;;;19.00;99.00;;;;;;5053493;28;20045;-67
2023/05/19 11:01:29;;;;;;;10.13;3.13;;;18.70;99.60;;;;;;5051148;28;20064;-67
2023/05/19 11:03:56;;;;;;;9.15;3.30;;;19.10;99.10;;;;;;5053694;28;20055;-66
2023/05/19 11:06:26;;;;;;;6.95;3.10;;;19.10;99.80;;;;;;5054283;28;20037;-66
2023/05/19 11:09:17;;;;;;;12.73;2.92;;;19.20;99.00;;;;;;5054521;28;20041;-67
2023/05/19 11:11:51;;;;;;;10.02;2.80;;;18.90;98.30;;;;;;5054170;28;20524;-66
2023/05/19 11:14:19;;;;;;;10.65;3.00;;;18.90;98.40;;;;;;5053230;28;20508;-66
2023/05/19 11:16:55;;;;;;;7.38;2.92;;;19.80;98.70;;;;;;5054406;28;20049;-67
2023/05/19 11:19:28;;;;;;;9.55;3.28;;;18.60;98.20;;;;;;5054584;28;20049;-67
2023/05/19 11:21:54;;;;;;;5.30;2.70;;;18.80;98.40;;;;;;5052851;28;20045;-67
2023/05/19 11:24:36;;;;;;;6.35;2.35;;;19.70;98.20;;;;;;5053251;28;20048;-67
2023/05/19 11:27:23;;;;;;;4.20;2.28;;;19.20;97.00;;;;;;5053855;28;20048;-67
2023/05/19 11:29:50;;;;;;;7.13;2.28;;;19.00;97.40;;;;;;5054310;28;20095;-67
2023/05/19 11:32:15;;;;;;;7.90;2.50;;;19.10;97.80;;;;;;5052645;28;20051;-67
2023/05/19 11:34:42;;;;;;;7.75;2.08;;;18.90;97.30;;;;;;5053427;28;20120;-67
2023/05/19 11:37:08;;;;;;;11.13;2.67;;;20.30;97.30;;;;;;5054119;28;20048;-67
2023/05/19 11:39:34;;;;;;;6.40;2.75;;;19.10;97.20;;;;;;5054081;28;20082;-67
2023/05/19 11:42:00;;;;;;;8.20;2.65;;;19.20;97.40;;;;;;5053801;28;20037;-66
2023/05/19 11:44:26;;;;;;;6.88;2.20;;;19.50;96.90;;;;;;5054941;28;20585;-66
2023/05/19 11:46:52;;;;;;;6.75;2.42;;;19.20;96.90;;;;;;5052456;28;20131;-67
2023/05/19 11:49:17;;;;;;;7.85;2.33;;;19.50;96.90;;;;;;5052438;28;20516;-67
2023/05/19 11:51:44;;;;;;;6.43;2.17;;;18.80;95.50;;;;;;5053542;28;20481;-67
2023/05/19 11:54:10;;;;;;;4.47;2.13;;;18.80;96.10;;;;;;5053753;28;20037;-67
2023/05/19 11:56:40;;;;;;;7.35;2.33;;;19.00;96.20;;;;;;5053494;28;20505;-67
2023/05/19 11:59:06;;;;;;;5.97;2.45;;;19.30;96.20;;;;;;5052403;28;20480;-66
2023/05/19 12:01:33;;;;;;;10.02;3.00;;;19.00;96.60;;;;;;5053420;28;20174;-67
2023/05/19 12:03:59;;;;;;;3.28;1.90;;;19.30;95.90;;;;;;5052660;28;20039;-67
2023/05/19 12:06:25;;;;;;;5.25;2.28;;;20.00;96.70;;;;;;5051955;28;20119;-67
2023/05/19 12:08:53;;;;;;;6.97;2.70;;;19.70;95.60;;;;;;5052249;28;20492;-67
2023/05/19 12:11:19;;;;;;;8.45;2.10;;;20.20;97.00;;;;;;5054045;28;20040;-66
2023/05/19 12:13:45;;;;;;;8.18;2.50;;;20.50;96.70;;;;;;5052813;28;20044;-67
2023/05/19 12:16:11;;;;;;;5.45;2.00;;;20.00;95.90;;;;;;5052116;28;20084;-67
2023/05/19 12:18:37;;;;;;;6.55;2.22;;;19.90;96.00;;;;;;5054403;28;20056;-67
2023/05/19 12:21:04;;;;;;;4.85;2.28;;;19.70;96.60;;;;;;5051885;28;20044;-66
2023/05/19 12:23:30;;;;;;;8.90;2.75;;;20.30;96.40;;;;;;5051761;28;20090;-66
2023/05/19 12:25:58;;;;;;;4.00;2.10;;;20.00;96.60;;;;;;5053068;28;20068;-67
2023/05/19 12:28:23;;;;;;;5.30;2.58;;;20.00;96.90;;;;;;5053185;28;20049;-67
2023/05/19 12:30:51;;;;;;;4.68;2.33;;;19.80;95.60;;;;;;5053151;28;20037;-67
2023/05/19 12:33:21;;;;;;;4.72;2.40;;;19.30;96.00;;;;;;5052836;28;20091;-66
2023/05/19 12:35:48;;;;;;;5.82;2.60;;;19.70;96.30;;;;;;5053742;28;20047;-67
2023/05/19 12:38:14;;;;;;;4.35;2.15;;;19.70;96.10;;;;;;5051494;28;20048;-66
2023/05/19 12:40:44;;;;;;;5.25;2.80;;;19.90;96.80;;;;;;5053375;28;20044;-67
2023/05/19 12:43:23;;;;;;;4.75;2.50;;;20.10;96.80;;;;;;5051433;28;20053;-67
2023/05/19 12:45:48;;;;;;;5.97;2.20;;;20.50;96.40;;;;;;5052370;28;20036;-67
2023/05/19 12:48:15;;;;;;;6.63;2.70;;;20.00;96.30;;;;;;5050478;28;20128;-67
2023/05/19 12:50:41;;;;;;;5.63;2.33;;;19.60;96.50;;;;;;5052765;28;20406;-67
2023/05/19 12:53:07;;;;;;;7.70;2.50;;;19.70;96.20;;;;;;5051882;28;20044;-67
2023/05/19 12:55:41;;;;;;;6.63;2.60;;;20.00;96.20;;;;;;5052860;28;20041;-67
2023/05/19 12:58:07;;;;;;;6.28;2.35;;;20.10;96.50;;;;;;5051140;28;20045;-67
2023/05/19 13:00:39;;;;;;;5.32;2.13;;;19.90;96.20;;;;;;5051154;28;20045;-66
2023/05/19 13:03:06;;;;;;;6.07;2.53;;;19.90;95.80;;;;;;5051289;28;20345;-67
2023/05/19 13:05:34;;;;;;;5.15;2.17;;;20.10;96.10;;;;;;5050979;28;20123;-66
2023/05/19 13:08:06;;;;;;;8.05;2.45;;;20.70;97.90;;;;;;5052501;28;20045;-67
2023/05/19 13:10:33;;;;;;;;;;;20.70;96.50;;;;;;5052713;28;20493;-67